Time;durP1;ratioP1;P1;durP2;ratioP2;P2;SDS_P1;SDS_P2;PMS_P1;PMS_P2;Temp;Humidity;BMP_temperature;BMP_pressure;BME280_temperature;BME280_humidity;BME280_pressure;Samples;Min_cycle;Max_cycle;Signal;HPM_P1;HPM_P2
2023/06/07 00:01:05;;;;;;;16.30;5.70;;;11.90;99.90;;;;;;5114474;28;20265;-68
2023/06/07 00:03:32;;;;;;;12.77;5.80;;;11.90;99.90;;;;;;5113997;28;20048;-68
2023/06/07 00:06:00;;;;;;;18.00;6.57;;;11.80;99.90;;;;;;5113871;28;20273;-68
2023/06/07 00:08:28;;;;;;;12.30;6.10;;;11.80;99.90;;;;;;5114553;28;20304;-68
2023/06/07 00:10:55;;;;;;;11.50;5.47;;;11.90;99.90;;;;;;5114306;28;20331;-68
2023/06/07 00:13:21;;;;;;;12.37;5.90;;;11.90;99.90;;;;;;5113837;28;20305;-68
2023/06/07 00:15:47;;;;;;;14.47;5.60;;;11.90;99.90;;;;;;5095611;28;20317;-68
2023/06/07 00:18:15;;;;;;;15.53;6.57;;;11.90;99.90;;;;;;5113704;28;20040;-68
2023/06/07 00:20:45;;;;;;;14.20;5.70;;;11.90;99.90;;;;;;5095951;28;20047;-68
2023/06/07 00:23:14;;;;;;;10.67;5.27;;;11.90;99.90;;;;;;5114181;28;20676;-68
2023/06/07 00:25:41;;;;;;;15.77;5.50;;;11.90;99.90;;;;;;5095869;28;20417;-68
2023/06/07 00:28:06;;;;;;;14.00;5.20;;;12.00;99.90;;;;;;5095067;28;20345;-68
2023/06/07 00:30:32;;;;;;;12.87;4.80;;;12.00;99.90;;;;;;5113798;28;20325;-68
2023/06/07 00:32:58;;;;;;;14.57;5.30;;;12.00;99.90;;;;;;5095632;28;20043;-68
2023/06/07 00:35:24;;;;;;;15.17;5.23;;;12.00;99.90;;;;;;5113548;28;20047;-68
2023/06/07 00:37:49;;;;;;;13.03;5.33;;;12.00;99.90;;;;;;5113538;28;20047;-68
2023/06/07 00:40:15;;;;;;;13.23;5.10;;;12.00;99.90;;;;;;5113176;28;20051;-68
2023/06/07 00:42:41;;;;;;;14.57;4.50;;;12.00;99.90;;;;;;5114851;28;20039;-68
2023/06/07 00:45:08;;;;;;;12.37;4.60;;;12.00;99.90;;;;;;5117556;28;20071;-68
2023/06/07 00:47:36;;;;;;;9.93;4.33;;;12.00;99.90;;;;;;5099844;28;20393;-68
2023/06/07 00:50:03;;;;;;;14.80;4.70;;;12.00;99.90;;;;;;5117122;28;20278;-68
2023/06/07 00:52:29;;;;;;;17.03;4.93;;;11.90;99.90;;;;;;5117449;28;20316;-68
2023/06/07 00:54:55;;;;;;;11.37;3.80;;;11.90;99.90;;;;;;5099309;28;20277;-68
2023/06/07 00:57:21;;;;;;;16.10;4.30;;;11.90;99.90;;;;;;5117209;28;20040;-68
2023/06/07 00:59:47;;;;;;;15.53;4.40;;;11.90;99.90;;;;;;5117330;28;20072;-67
2023/06/07 01:02:16;;;;;;;9.77;4.13;;;11.90;99.90;;;;;;5099098;28;20039;-68
2023/06/07 01:04:42;;;;;;;12.27;4.20;;;11.90;99.90;;;;;;5117168;28;20036;-68
2023/06/07 01:07:09;;;;;;;13.97;4.90;;;11.90;99.90;;;;;;5117410;28;20293;-67
2023/06/07 01:09:35;;;;;;;12.73;3.57;;;11.80;99.90;;;;;;5098867;28;20637;-68
2023/06/07 01:12:03;;;;;;;14.83;4.87;;;11.90;99.90;;;;;;5117151;28;20360;-67
2023/06/07 01:14:31;;;;;;;13.37;4.23;;;11.90;99.90;;;;;;5117046;28;20277;-68
2023/06/07 01:16:58;;;;;;;13.53;4.27;;;12.00;99.90;;;;;;5117041;28;20313;-68
2023/06/07 01:19:29;;;;;;;13.37;4.20;;;11.90;99.90;;;;;;5117188;28;20323;-68
2023/06/07 01:22:05;;;;;;;14.43;4.63;;;11.90;99.90;;;;;;5098744;28;20360;-67
2023/06/07 01:24:35;;;;;;;16.63;4.17;;;11.90;99.90;;;;;;5116586;28;20820;-68
2023/06/07 01:27:07;;;;;;;13.20;4.20;;;12.00;99.90;;;;;;5116722;28;20626;-68
2023/06/07 01:29:33;;;;;;;10.67;4.03;;;11.90;99.90;;;;;;5117167;28;20286;-68
2023/06/07 01:32:05;;;;;;;13.53;4.10;;;12.00;99.90;;;;;;5116382;28;20745;-67
2023/06/07 01:34:31;;;;;;;16.13;5.60;;;12.00;99.90;;;;;;5116784;28;20282;-68
2023/06/07 01:36:57;;;;;;;13.60;4.70;;;12.00;99.90;;;;;;5116641;28;20284;-68
2023/06/07 01:39:25;;;;;;;13.63;4.77;;;12.00;99.90;;;;;;5098510;28;20285;-68
2023/06/07 01:41:52;;;;;;;18.47;4.80;;;12.00;99.90;;;;;;5116597;28;20055;-68
2023/06/07 01:44:18;;;;;;;14.43;3.67;;;12.00;99.90;;;;;;5098421;28;20776;-67
2023/06/07 01:46:45;;;;;;;13.80;3.90;;;12.00;99.90;;;;;;5116222;28;20285;-68
2023/06/07 01:49:12;;;;;;;15.90;4.93;;;12.00;99.90;;;;;;5116440;28;20365;-67
2023/06/07 01:51:37;;;;;;;14.97;4.43;;;12.00;99.90;;;;;;5116844;28;20277;-67
2023/06/07 01:54:05;;;;;;;14.17;3.77;;;12.00;99.90;;;;;;5116252;28;20285;-67
2023/06/07 01:56:42;;;;;;;15.57;4.30;;;12.00;99.90;;;;;;5116206;28;20487;-67
2023/06/07 01:59:35;;;;;;;14.73;4.97;;;12.00;99.90;;;;;;5116991;28;20415;-68
2023/06/07 02:02:30;;;;;;;17.60;4.57;;;12.00;99.90;;;;;;5116179;28;20278;-68
2023/06/07 02:05:03;;;;;;;11.37;3.93;;;12.00;99.90;;;;;;5116645;28;20299;-67
2023/06/07 02:07:35;;;;;;;10.43;3.77;;;12.00;99.90;;;;;;5097937;28;20388;-68
2023/06/07 02:10:03;;;;;;;9.93;4.40;;;12.00;99.90;;;;;;5098329;28;20284;-68
2023/06/07 02:12:31;;;;;;;13.77;4.20;;;12.00;99.90;;;;;;5115904;28;20324;-68
2023/06/07 02:15:00;;;;;;;15.37;5.10;;;12.00;99.90;;;;;;5115633;28;20772;-68
2023/06/07 02:17:25;;;;;;;11.87;4.33;;;12.00;99.90;;;;;;5115845;28;20274;-68
2023/06/07 02:19:51;;;;;;;13.23;4.40;;;11.90;99.90;;;;;;5116342;28;20285;-68
2023/06/07 02:22:17;;;;;;;14.83;3.90;;;11.90;99.90;;;;;;5116285;28;20043;-68
2023/06/07 02:24:43;;;;;;;15.23;4.70;;;11.90;99.90;;;;;;5116048;28;20064;-68
2023/06/07 02:27:08;;;;;;;16.67;4.10;;;11.90;99.90;;;;;;5115645;28;20039;-68
2023/06/07 02:29:35;;;;;;;13.37;3.90;;;11.90;99.90;;;;;;5116179;28;20064;-68
2023/06/07 02:32:01;;;;;;;20.87;5.07;;;11.90;99.90;;;;;;5115587;28;20047;-68
2023/06/07 02:34:29;;;;;;;15.53;4.40;;;11.90;99.90;;;;;;5097305;28;20291;-68
2023/06/07 02:36:55;;;;;;;13.07;4.00;;;11.90;99.90;;;;;;5116268;28;20066;-68
2023/06/07 02:39:21;;;;;;;15.43;4.40;;;12.00;99.90;;;;;;5116171;28;20362;-68
2023/06/07 02:41:47;;;;;;;15.50;5.10;;;11.90;99.90;;;;;;5115614;28;20273;-68
2023/06/07 02:44:13;;;;;;;17.33;4.63;;;12.00;99.90;;;;;;5115299;28;20043;-68
2023/06/07 02:46:38;;;;;;;14.23;4.30;;;12.00;99.90;;;;;;5116093;28;20113;-68
2023/06/07 02:49:04;;;;;;;12.33;4.67;;;12.00;99.90;;;;;;5097579;28;20048;-68
2023/06/07 02:51:30;;;;;;;17.40;4.87;;;12.00;99.90;;;;;;5115142;28;20079;-68
2023/06/07 02:53:56;;;;;;;14.13;4.03;;;12.00;99.90;;;;;;5115109;28;20044;-68
2023/06/07 02:56:23;;;;;;;12.80;4.03;;;12.10;99.90;;;;;;5097350;28;20058;-68
2023/06/07 02:58:49;;;;;;;15.13;3.60;;;12.00;99.90;;;;;;5115768;28;20043;-68
2023/06/07 03:01:16;;;;;;;15.57;3.90;;;12.00;99.90;;;;;;5114948;28;20285;-68
2023/06/07 03:03:42;;;;;;;13.87;3.70;;;12.00;99.90;;;;;;5115240;28;20342;-68
2023/06/07 03:06:09;;;;;;;13.40;3.77;;;12.00;99.90;;;;;;5113883;28;20697;-68
2023/06/07 03:08:35;;;;;;;13.83;3.77;;;12.00;99.90;;;;;;5114702;28;20311;-69
2023/06/07 03:11:01;;;;;;;12.77;4.03;;;12.10;99.90;;;;;;5114759;28;20323;-68
2023/06/07 03:13:27;;;;;;;14.23;3.50;;;12.10;99.90;;;;;;5115523;28;20293;-68
2023/06/07 03:15:53;;;;;;;10.43;3.73;;;12.10;99.90;;;;;;5096507;28;20040;-68
2023/06/07 03:18:19;;;;;;;12.97;3.23;;;12.10;99.90;;;;;;5115192;28;20098;-68
2023/06/07 03:20:47;;;;;;;12.73;4.43;;;12.10;99.90;;;;;;5115032;28;20468;-68
2023/06/07 03:23:13;;;;;;;13.70;3.20;;;12.10;99.90;;;;;;5114558;28;20285;-68
2023/06/07 03:25:40;;;;;;;12.63;3.13;;;12.10;99.90;;;;;;5114503;28;20799;-68
2023/06/07 03:28:05;;;;;;;12.17;3.23;;;12.10;99.90;;;;;;5114227;28;20309;-68
2023/06/07 03:30:31;;;;;;;10.97;3.30;;;12.10;99.90;;;;;;5096370;28;20297;-67
2023/06/07 03:32:57;;;;;;;11.60;3.67;;;12.00;99.90;;;;;;5114887;28;20051;-68
2023/06/07 03:35:22;;;;;;;14.50;3.63;;;12.10;99.90;;;;;;5114697;28;20052;-68
2023/06/07 03:37:48;;;;;;;14.87;3.10;;;12.00;99.90;;;;;;5114855;28;20044;-68
2023/06/07 03:40:14;;;;;;;14.37;4.83;;;12.10;99.90;;;;;;5113947;28;20126;-68
2023/06/07 03:42:40;;;;;;;13.97;3.87;;;12.10;99.90;;;;;;5114229;28;20050;-68
2023/06/07 03:45:06;;;;;;;13.57;4.47;;;12.10;99.90;;;;;;5114221;28;20043;-68
2023/06/07 03:47:32;;;;;;;14.33;4.00;;;12.10;99.90;;;;;;5114068;28;20394;-68
2023/06/07 03:49:58;;;;;;;14.83;4.33;;;12.10;99.90;;;;;;5096369;28;20313;-68
2023/06/07 03:52:24;;;;;;;12.97;3.40;;;12.10;99.90;;;;;;5113998;28;20370;-67
2023/06/07 03:54:50;;;;;;;15.13;3.87;;;12.10;99.90;;;;;;5113959;28;20046;-68
2023/06/07 03:57:16;;;;;;;16.47;4.90;;;12.20;99.90;;;;;;5114246;28;20274;-68
2023/06/07 03:59:42;;;;;;;17.37;4.60;;;12.20;99.90;;;;;;5114003;28;20382;-68
2023/06/07 04:02:07;;;;;;;15.70;4.83;;;12.20;99.90;;;;;;5095962;28;20039;-67
2023/06/07 04:04:33;;;;;;;11.60;3.57;;;12.20;99.90;;;;;;5113907;28;20054;-68
2023/06/07 04:07:02;;;;;;;15.07;4.33;;;12.20;99.90;;;;;;5113731;28;20534;-68
2023/06/07 04:09:28;;;;;;;13.80;3.77;;;12.20;99.90;;;;;;5095820;28;20047;-68
2023/06/07 04:11:54;;;;;;;12.03;3.17;;;12.20;99.90;;;;;;5113660;28;20281;-68
2023/06/07 04:14:20;;;;;;;14.57;4.90;;;12.20;99.90;;;;;;5113749;28;20040;-67
2023/06/07 04:16:46;;;;;;;19.10;4.27;;;12.20;99.90;;;;;;5113484;28;20050;-68
2023/06/07 04:19:11;;;;;;;14.90;4.30;;;12.20;99.90;;;;;;5113607;28;20043;-67
2023/06/07 04:21:38;;;;;;;16.63;3.37;;;12.20;99.90;;;;;;5095598;28;20810;-67
2023/06/07 04:24:04;;;;;;;14.73;3.67;;;12.20;99.90;;;;;;5095929;28;20048;-68
2023/06/07 04:26:31;;;;;;;12.90;3.03;;;12.20;99.90;;;;;;5113591;28;20297;-68
2023/06/07 04:28:57;;;;;;;10.23;3.07;;;12.20;99.90;;;;;;5113134;28;20317;-68
2023/06/07 04:31:29;;;;;;;11.17;3.37;;;12.20;99.90;;;;;;5095284;28;20289;-68
2023/06/07 04:34:01;;;;;;;12.30;3.23;;;12.20;99.90;;;;;;5114183;28;20313;-68
2023/06/07 04:36:29;;;;;;;11.13;3.20;;;12.20;99.90;;;;;;5113804;28;20289;-68
2023/06/07 04:38:58;;;;;;;13.57;3.80;;;12.20;99.90;;;;;;5113440;28;20285;-68
2023/06/07 04:41:32;;;;;;;12.67;3.03;;;12.20;99.90;;;;;;5113499;28;20317;-68
2023/06/07 04:44:03;;;;;;;18.40;3.90;;;12.30;99.90;;;;;;5113732;28;20282;-68
2023/06/07 04:46:30;;;;;;;13.83;3.63;;;12.30;99.90;;;;;;5113469;28;20285;-68
2023/06/07 04:48:57;;;;;;;12.23;3.03;;;12.30;99.90;;;;;;5113311;28;20757;-68
2023/06/07 04:51:25;;;;;;;11.30;3.27;;;12.40;99.90;;;;;;5096192;28;20304;-68
2023/06/07 04:53:58;;;;;;;7.83;3.10;;;12.40;99.90;;;;;;5094846;28;20753;-68
2023/06/07 04:56:27;;;;;;;14.63;3.67;;;12.40;99.90;;;;;;5114000;28;20270;-68
2023/06/07 04:58:53;;;;;;;16.63;4.20;;;12.40;99.90;;;;;;5095861;28;20372;-68
2023/06/07 05:01:20;;;;;;;10.57;3.97;;;12.40;99.90;;;;;;5095556;28;20289;-68
2023/06/07 05:03:46;;;;;;;12.17;4.50;;;12.40;99.90;;;;;;5095049;28;20364;-71
2023/06/07 05:06:11;;;;;;;13.10;3.77;;;12.40;99.90;;;;;;5095040;28;20361;-68
2023/06/07 05:08:37;;;;;;;13.23;3.97;;;12.40;99.90;;;;;;5094732;28;20110;-68
2023/06/07 05:11:03;;;;;;;14.50;4.07;;;12.50;99.90;;;;;;5113285;28;20048;-68
2023/06/07 05:13:29;;;;;;;11.57;3.43;;;12.60;99.90;;;;;;5095377;28;20281;-68
2023/06/07 05:15:55;;;;;;;12.07;3.70;;;12.70;99.90;;;;;;5095245;28;20043;-68
2023/06/07 05:18:20;;;;;;;12.03;3.60;;;12.70;99.90;;;;;;5113214;28;20058;-68
2023/06/07 05:20:46;;;;;;;11.83;3.83;;;12.70;99.90;;;;;;5095702;28;20141;-68
2023/06/07 05:23:17;;;;;;;12.97;3.70;;;12.80;99.90;;;;;;5113157;28;20083;-68
2023/06/07 05:25:46;;;;;;;15.13;4.63;;;12.80;99.90;;;;;;5113124;28;20364;-68
2023/06/07 05:28:13;;;;;;;12.03;3.90;;;12.80;99.90;;;;;;5094701;28;20317;-68
2023/06/07 05:30:39;;;;;;;11.17;3.87;;;12.90;99.90;;;;;;5115794;28;20632;-68
2023/06/07 05:33:06;;;;;;;13.37;4.00;;;12.90;99.90;;;;;;5116757;28;20335;-68
2023/06/07 05:35:32;;;;;;;11.37;3.50;;;13.00;99.90;;;;;;5117224;28;20281;-68
2023/06/07 05:37:58;;;;;;;15.27;4.23;;;12.90;99.90;;;;;;5116719;28;20277;-68
2023/06/07 05:40:23;;;;;;;11.83;3.83;;;13.00;99.90;;;;;;5116722;28;20285;-68
2023/06/07 05:42:50;;;;;;;12.57;3.70;;;13.00;99.90;;;;;;5116547;28;20055;-70
2023/06/07 05:45:16;;;;;;;15.50;3.70;;;13.00;99.90;;;;;;5099345;28;20492;-68
2023/06/07 05:47:45;;;;;;;13.83;4.37;;;13.10;99.90;;;;;;5098369;28;20316;-68
2023/06/07 05:50:11;;;;;;;14.43;3.50;;;13.10;99.90;;;;;;5116399;28;20765;-68
2023/06/07 05:52:40;;;;;;;13.40;4.07;;;13.10;99.90;;;;;;5116973;28;20277;-68
2023/06/07 05:55:07;;;;;;;12.23;3.40;;;13.20;99.90;;;;;;5116061;28;20605;-68
2023/06/07 05:57:33;;;;;;;10.87;3.77;;;13.20;99.90;;;;;;5098257;28;20297;-68
2023/06/07 05:59:59;;;;;;;13.37;3.03;;;13.30;99.90;;;;;;5098202;28;20339;-68
2023/06/07 06:02:26;;;;;;;8.87;2.63;;;13.30;99.90;;;;;;5116192;28;20317;-68
2023/06/07 06:04:52;;;;;;;11.37;3.47;;;13.30;99.90;;;;;;5116169;28;20055;-70
2023/06/07 06:07:18;;;;;;;10.60;3.20;;;13.30;99.90;;;;;;5098070;28;20301;-68
2023/06/07 06:09:43;;;;;;;9.97;3.33;;;13.30;99.90;;;;;;5116116;28;20287;-68
2023/06/07 06:12:10;;;;;;;14.23;3.67;;;13.20;99.90;;;;;;5116495;28;20047;-67
2023/06/07 06:14:36;;;;;;;12.83;3.40;;;13.30;99.90;;;;;;5098508;28;20376;-67
2023/06/07 06:17:02;;;;;;;15.03;3.13;;;13.30;99.90;;;;;;5097844;28;20324;-68
2023/06/07 06:19:28;;;;;;;13.00;3.60;;;13.40;99.90;;;;;;5115843;28;20309;-68
2023/06/07 06:21:53;;;;;;;10.87;3.20;;;13.40;99.90;;;;;;5116329;28;20130;-70
2023/06/07 06:24:19;;;;;;;9.20;2.43;;;13.40;99.90;;;;;;5115951;28;20044;-68
2023/06/07 06:26:45;;;;;;;16.27;3.77;;;13.30;99.90;;;;;;5116072;28;20472;-68
2023/06/07 06:29:10;;;;;;;14.17;3.10;;;13.30;99.90;;;;;;5115801;28;20410;-68
2023/06/07 06:31:36;;;;;;;13.00;3.90;;;13.30;99.90;;;;;;5115651;28;20086;-68
2023/06/07 06:34:02;;;;;;;10.40;2.70;;;13.30;99.90;;;;;;5115600;28;20079;-68
2023/06/07 06:36:28;;;;;;;8.17;2.90;;;13.40;99.90;;;;;;5115509;28;20056;-68
2023/06/07 06:38:54;;;;;;;11.93;3.53;;;13.50;99.90;;;;;;5115354;28;20130;-68
2023/06/07 06:41:20;;;;;;;11.63;3.43;;;13.60;99.90;;;;;;5115199;28;20305;-68
2023/06/07 06:43:46;;;;;;;12.03;3.20;;;13.80;99.90;;;;;;5115911;28;20051;-68
2023/06/07 06:46:11;;;;;;;10.13;3.00;;;13.90;99.90;;;;;;5116023;28;20046;-68
2023/06/07 06:48:37;;;;;;;9.43;2.93;;;14.00;99.90;;;;;;5115171;28;20136;-68
2023/06/07 06:51:03;;;;;;;14.17;3.10;;;14.10;99.90;;;;;;5097057;28;20382;-68
2023/06/07 06:53:29;;;;;;;12.73;3.33;;;14.20;99.90;;;;;;5115184;28;20054;-68
2023/06/07 06:55:55;;;;;;;14.33;3.70;;;14.20;99.90;;;;;;5097403;28;20289;-68
2023/06/07 06:58:21;;;;;;;13.30;3.43;;;14.30;99.90;;;;;;5115117;28;20044;-67
2023/06/07 07:00:47;;;;;;;10.73;3.23;;;14.30;99.90;;;;;;5115041;28;20784;-67
2023/06/07 07:03:12;;;;;;;10.83;2.93;;;14.30;99.90;;;;;;5114935;28;20126;-68
2023/06/07 07:05:38;;;;;;;10.17;2.77;;;14.30;99.90;;;;;;5096733;28;20309;-68
2023/06/07 07:08:04;;;;;;;12.87;3.50;;;14.40;99.90;;;;;;5115563;28;20040;-68
2023/06/07 07:10:30;;;;;;;10.97;3.87;;;14.50;99.90;;;;;;5115652;28;20471;-67
2023/06/07 07:12:55;;;;;;;9.23;2.83;;;14.50;99.90;;;;;;5096872;28;20487;-67
2023/06/07 07:15:21;;;;;;;12.53;3.57;;;14.60;99.90;;;;;;5114748;28;20050;-67
2023/06/07 07:17:48;;;;;;;12.47;3.30;;;14.70;99.90;;;;;;5114772;28;20051;-67
2023/06/07 07:20:16;;;;;;;11.93;3.40;;;15.30;99.90;;;;;;5114731;28;20047;-68
2023/06/07 07:22:43;;;;;;;13.80;3.57;;;16.80;99.90;;;;;;5114677;28;20282;-68
2023/06/07 07:25:10;;;;;;;8.83;3.03;;;17.90;99.90;;;;;;5097258;28;20281;-68
2023/06/07 07:27:36;;;;;;;11.27;3.10;;;18.30;99.90;;;;;;5115017;28;20050;-67
2023/06/07 07:30:04;;;;;;;11.63;4.17;;;18.40;99.90;;;;;;5114561;28;20051;-69
2023/06/07 07:32:30;;;;;;;8.03;2.70;;;18.70;99.90;;;;;;5080455;28;20066;-68
2023/06/07 07:34:56;;;;;;;9.33;2.93;;;18.70;99.90;;;;;;5114952;28;20052;-68
2023/06/07 07:37:22;;;;;;;9.20;2.87;;;18.70;99.90;;;;;;5114404;28;20066;-68
2023/06/07 07:39:48;;;;;;;9.80;3.20;;;18.90;99.90;;;;;;5114289;28;20054;-68
2023/06/07 07:42:13;;;;;;;12.40;3.00;;;18.80;99.90;;;;;;5114267;28;20040;-68
2023/06/07 07:44:39;;;;;;;9.83;2.77;;;18.70;99.90;;;;;;5114591;28;20051;-69
2023/06/07 07:47:05;;;;;;;13.20;3.50;;;19.60;99.90;;;;;;5096886;28;20448;-69
2023/06/07 07:49:31;;;;;;;9.23;2.83;;;20.30;99.90;;;;;;5096196;28;20047;-68
2023/06/07 07:51:57;;;;;;;11.07;2.90;;;21.20;99.90;;;;;;5113541;28;20051;-68
2023/06/07 07:54:23;;;;;;;7.27;2.90;;;22.20;96.80;;;;;;5114168;28;20082;-68
2023/06/07 07:56:48;;;;;;;12.73;3.33;;;22.60;93.50;;;;;;5114377;28;20046;-68
2023/06/07 07:59:14;;;;;;;9.97;3.43;;;23.00;90.10;;;;;;5114736;28;20044;-69
2023/06/07 08:01:40;;;;;;;9.13;3.13;;;23.10;78.10;;;;;;5113966;28;20494;-69
2023/06/07 08:04:06;;;;;;;10.07;3.10;;;23.40;77.30;;;;;;5114219;28;20161;-72
2023/06/07 08:06:32;;;;;;;8.27;3.00;;;23.60;71.60;;;;;;5113990;28;20052;-69
2023/06/07 08:08:58;;;;;;;10.17;2.80;;;23.90;70.20;;;;;;5114561;28;20509;-68
2023/06/07 08:11:24;;;;;;;9.23;3.40;;;24.20;65.70;;;;;;5113846;28;20083;-69
2023/06/07 08:13:50;;;;;;;9.40;3.23;;;24.70;64.50;;;;;;5113838;28;20479;-68
2023/06/07 08:16:16;;;;;;;11.03;3.33;;;25.30;60.20;;;;;;5113816;28;20050;-69
2023/06/07 08:18:44;;;;;;;6.77;2.70;;;25.50;59.20;;;;;;5113509;28;20475;-69
2023/06/07 08:21:12;;;;;;;12.93;3.70;;;25.70;58.10;;;;;;5113772;28;20116;-69
2023/06/07 08:23:38;;;;;;;7.67;3.03;;;26.10;54.60;;;;;;5114463;28;20066;-69
2023/06/07 08:26:03;;;;;;;7.33;2.90;;;25.90;53.40;;;;;;5113731;28;20479;-69
2023/06/07 08:28:29;;;;;;;7.33;3.17;;;26.20;51.40;;;;;;5095252;28;20115;-68
2023/06/07 08:30:55;;;;;;;8.30;2.87;;;25.80;53.20;;;;;;5114154;28;20048;-69
2023/06/07 08:33:21;;;;;;;10.60;3.30;;;25.40;53.60;;;;;;5113874;28;20043;-69
2023/06/07 08:35:47;;;;;;;9.90;3.00;;;25.70;54.80;;;;;;5114432;28;20048;-69
2023/06/07 08:38:13;;;;;;;10.43;3.47;;;25.70;54.20;;;;;;5114033;28;20036;-69
2023/06/07 08:40:38;;;;;;;10.30;2.93;;;25.40;54.00;;;;;;5113472;28;20051;-69
2023/06/07 08:43:04;;;;;;;6.93;2.47;;;25.10;53.60;;;;;;5113451;28;20047;-69
2023/06/07 08:45:30;;;;;;;11.27;3.10;;;24.50;54.40;;;;;;5113498;28;20507;-69
2023/06/07 08:48:06;;;;;;;8.93;2.97;;;24.20;55.50;;;;;;5113429;28;20043;-69
2023/06/07 08:50:33;;;;;;;7.90;2.90;;;23.70;54.40;;;;;;5095575;28;20047;-69
2023/06/07 08:53:12;;;;;;;6.67;2.57;;;23.10;56.70;;;;;;5096238;28;20050;-69
2023/06/07 08:55:38;;;;;;;7.60;2.70;;;22.70;57.90;;;;;;5096248;28;20097;-69
2023/06/07 08:58:07;;;;;;;8.43;2.87;;;22.30;58.50;;;;;;5113457;28;20044;-73
2023/06/07 09:00:33;;;;;;;8.30;2.67;;;22.30;60.30;;;;;;5095454;28;20093;-72
2023/06/07 09:02:58;;;;;;;9.43;2.97;;;22.20;60.20;;;;;;5113136;28;20567;-73
2023/06/07 09:05:24;;;;;;;9.27;2.97;;;21.70;61.00;;;;;;5117290;28;20045;-73
2023/06/07 09:07:50;;;;;;;7.87;3.27;;;21.20;62.80;;;;;;5117179;28;20046;-72
2023/06/07 09:10:20;;;;;;;9.43;3.00;;;20.80;66.80;;;;;;5098952;28;20078;-73
2023/06/07 09:12:46;;;;;;;8.17;2.90;;;20.40;71.20;;;;;;5117175;28;20117;-73
2023/06/07 09:15:22;;;;;;;8.90;2.87;;;19.90;75.20;;;;;;5117450;28;20391;-73
2023/06/07 09:18:03;;;;;;;11.67;3.43;;;19.50;83.00;;;;;;5117081;28;20047;-72
2023/06/07 09:20:31;;;;;;;10.40;2.80;;;19.40;84.80;;;;;;5117036;28;20475;-73
2023/06/07 09:23:13;;;;;;;9.13;3.33;;;19.40;88.30;;;;;;5117064;28;20080;-73
2023/06/07 09:25:39;;;;;;;9.33;3.30;;;19.30;91.40;;;;;;5116934;28;20043;-72
2023/06/07 09:28:13;;;;;;;10.60;3.07;;;19.30;91.00;;;;;;5116765;28;20138;-74
2023/06/07 09:30:56;;;;;;;11.25;3.33;;;19.50;92.30;;;;;;5082474;28;20429;-70
2023/06/07 09:33:33;;;;;;;8.23;3.30;;;19.60;91.30;;;;;;5116818;28;20057;-70
2023/06/07 09:36:11;;;;;;;7.93;3.00;;;19.50;91.30;;;;;;5099004;28;20048;-70
2023/06/07 09:38:37;;;;;;;6.77;2.90;;;19.50;90.50;;;;;;5116658;28;20116;-69
2023/06/07 09:41:05;;;;;;;10.37;3.03;;;19.30;91.20;;;;;;5116615;28;20399;-69
2023/06/07 09:43:46;;;;;;;12.17;3.37;;;19.40;91.60;;;;;;5116328;28;20051;-69
2023/06/07 09:46:13;;;;;;;10.97;3.67;;;19.40;92.50;;;;;;5116245;28;20044;-69
2023/06/07 09:48:52;;;;;;;9.90;3.00;;;19.30;92.70;;;;;;5116134;28;20041;-69
2023/06/07 09:51:20;;;;;;;8.40;2.47;;;19.20;92.00;;;;;;5117035;28;20119;-70
2023/06/07 09:53:54;;;;;;;8.93;3.57;;;19.10;91.80;;;;;;5116689;28;20050;-69
2023/06/07 09:56:24;;;;;;;7.97;3.00;;;18.90;92.50;;;;;;5116368;28;20157;-69
2023/06/07 09:59:14;;;;;;;8.63;3.00;;;18.90;93.30;;;;;;5116301;28;20391;-69
2023/06/07 10:01:45;;;;;;;11.77;3.17;;;18.90;93.60;;;;;;5116354;28;20504;-69
2023/06/07 10:04:11;;;;;;;8.50;3.20;;;18.80;93.30;;;;;;5116592;28;20044;-69
2023/06/07 10:06:40;;;;;;;8.37;3.77;;;18.60;93.60;;;;;;5116694;28;20058;-69
2023/06/07 10:09:07;;;;;;;8.03;3.27;;;18.50;94.70;;;;;;5098483;28;20130;-69
2023/06/07 10:11:36;;;;;;;9.47;3.33;;;18.40;96.00;;;;;;5116033;28;20132;-69
2023/06/07 10:14:12;;;;;;;12.30;3.97;;;18.40;96.10;;;;;;5116074;28;20051;-69
2023/06/07 10:16:46;;;;;;;9.07;3.73;;;18.40;96.50;;;;;;5115359;28;20122;-69
2023/06/07 10:19:37;;;;;;;9.35;3.65;;;18.40;97.30;;;;;;5116523;28;20077;-69
2023/06/07 10:22:05;;;;;;;12.33;4.37;;;18.50;97.60;;;;;;5098196;28;20130;-69
2023/06/07 10:24:59;;;;;;;7.60;3.30;;;18.40;97.60;;;;;;5115798;28;20048;-69
2023/06/07 10:27:28;;;;;;;11.57;3.53;;;18.40;97.80;;;;;;5097589;28;20519;-69
2023/06/07 10:30:09;;;;;;;10.77;4.17;;;18.50;98.20;;;;;;5116168;28;20200;-69
2023/06/07 10:32:38;;;;;;;13.13;4.60;;;18.30;99.00;;;;;;5116204;28;20055;-69
2023/06/07 10:35:08;;;;;;;8.87;3.20;;;18.40;98.70;;;;;;5115896;28;20126;-69
2023/06/07 10:37:36;;;;;;;12.57;4.50;;;18.40;99.10;;;;;;5115594;28;20086;-69
2023/06/07 10:40:09;;;;;;;7.93;3.07;;;18.50;98.80;;;;;;5115493;28;20476;-69
2023/06/07 10:42:37;;;;;;;11.80;4.40;;;18.50;99.10;;;;;;5115516;28;20093;-69
2023/06/07 10:45:03;;;;;;;10.10;3.57;;;18.60;99.40;;;;;;5115653;28;20058;-69
2023/06/07 10:47:29;;;;;;;11.00;3.50;;;18.70;99.40;;;;;;5115301;28;20047;-69
2023/06/07 10:49:56;;;;;;;13.90;3.83;;;18.70;99.00;;;;;;5115242;28;20040;-69
2023/06/07 10:52:23;;;;;;;10.57;3.63;;;18.70;98.90;;;;;;5097977;28;20134;-69
2023/06/07 10:54:49;;;;;;;11.73;3.93;;;18.70;99.00;;;;;;5115037;28;20092;-70
2023/06/07 10:57:34;;;;;;;11.60;4.00;;;18.70;99.30;;;;;;5096912;28;20051;-68
2023/06/07 11:00:19;;;;;;;;;;;18.70;99.60;;;;;;5115643;28;20173;-68
2023/06/07 11:02:45;;;;;;;13.73;4.00;;;18.70;98.80;;;;;;5114999;28;19927;-69
2023/06/07 11:05:11;;;;;;;12.37;3.70;;;18.70;99.10;;;;;;5115028;28;20286;-68
2023/06/07 11:07:41;;;;;;;9.37;3.37;;;18.60;99.20;;;;;;5114925;28;20044;-68
2023/06/07 11:10:13;;;;;;;9.83;3.90;;;18.60;99.80;;;;;;5115487;28;20087;-68
2023/06/07 11:12:40;;;;;;;10.57;3.67;;;18.60;99.90;;;;;;5115186;28;20051;-69
2023/06/07 11:15:21;;;;;;;10.20;3.80;;;18.60;99.90;;;;;;5115132;28;20051;-68
2023/06/07 11:18:00;;;;;;;10.57;3.67;;;18.70;99.90;;;;;;5114838;28;20051;-69
2023/06/07 11:20:38;;;;;;;9.27;4.40;;;18.70;99.90;;;;;;5115058;28;20399;-71
2023/06/07 11:23:22;;;;;;;9.27;3.93;;;18.70;99.90;;;;;;5115065;28;20044;-72
2023/06/07 11:25:51;;;;;;;8.60;3.35;;;18.70;99.60;;;;;;5114820;28;20437;-69
2023/06/07 11:28:27;;;;;;;11.63;4.03;;;18.60;99.90;;;;;;5113367;28;20056;-69
2023/06/07 11:30:54;;;;;;;8.23;3.33;;;18.70;99.90;;;;;;5114823;28;20479;-69
2023/06/07 11:33:21;;;;;;;11.07;3.63;;;18.60;99.90;;;;;;5114477;28;20603;-69
2023/06/07 11:35:54;;;;;;;14.70;4.10;;;18.70;99.90;;;;;;5114395;28;20087;-69
2023/06/07 11:38:21;;;;;;;9.57;3.80;;;18.70;99.90;;;;;;5114742;28;20047;-69
2023/06/07 11:40:47;;;;;;;12.47;4.30;;;18.80;99.90;;;;;;5113982;28;20649;-69
2023/06/07 11:43:18;;;;;;;12.43;3.97;;;18.80;99.60;;;;;;5115068;28;20372;-69
2023/06/07 11:45:44;;;;;;;14.20;4.77;;;18.80;98.80;;;;;;5114693;28;20111;-70
2023/06/07 11:48:10;;;;;;;9.27;4.43;;;18.80;98.90;;;;;;5114045;28;20047;-69
2023/06/07 11:50:37;;;;;;;10.27;4.40;;;18.80;99.00;;;;;;5114071;28;20104;-70
2023/06/07 11:53:05;;;;;;;15.83;5.83;;;18.80;99.30;;;;;;5114048;28;20479;-69
2023/06/07 11:55:32;;;;;;;13.53;5.63;;;18.80;99.70;;;;;;5114772;28;20071;-69
2023/06/07 11:58:02;;;;;;;11.80;5.00;;;18.80;99.90;;;;;;5114095;28;20035;-69
2023/06/07 12:00:30;;;;;;;12.47;4.93;;;18.80;99.80;;;;;;5096113;28;20467;-69
2023/06/07 12:03:00;;;;;;;11.40;5.93;;;18.90;99.90;;;;;;5113638;28;20479;-69
2023/06/07 12:05:32;;;;;;;11.73;4.93;;;18.90;99.90;;;;;;5079505;28;20445;-69
2023/06/07 12:08:10;;;;;;;11.90;5.03;;;19.10;99.90;;;;;;5115003;28;20090;-73
2023/06/07 12:10:39;;;;;;;14.00;5.47;;;19.10;99.90;;;;;;5079287;28;20086;-72
2023/06/07 12:13:16;;;;;;;12.33;4.80;;;19.00;99.90;;;;;;5113806;28;20047;-71
2023/06/07 12:15:56;;;;;;;11.37;4.73;;;19.10;99.10;;;;;;5114401;28;20048;-72
2023/06/07 12:18:25;;;;;;;10.70;4.47;;;18.90;99.60;;;;;;5096606;28;20048;-72
2023/06/07 12:21:23;;;;;;;11.90;4.40;;;18.90;99.90;;;;;;5113743;28;20048;-72
2023/06/07 12:23:51;;;;;;;10.50;4.50;;;18.90;99.90;;;;;;5094003;28;20060;-72
2023/06/07 12:26:21;;;;;;;9.97;4.00;;;19.00;99.90;;;;;;5113733;28;20058;-72
2023/06/07 12:28:50;;;;;;;11.30;4.53;;;19.00;99.10;;;;;;5113961;28;20059;-69
2023/06/07 12:31:19;;;;;;;9.83;3.77;;;18.90;99.30;;;;;;5113733;28;20127;-69
2023/06/07 12:34:06;;;;;;;10.93;4.43;;;18.90;99.60;;;;;;5113568;28;20051;-69
2023/06/07 12:36:36;;;;;;;12.57;4.80;;;19.00;99.40;;;;;;5113975;28;20476;-69
2023/06/07 12:39:06;;;;;;;10.83;4.00;;;18.80;99.50;;;;;;5116448;28;20035;-69
2023/06/07 12:41:32;;;;;;;11.50;4.13;;;18.80;99.00;;;;;;5117796;28;20436;-69
2023/06/07 12:44:01;;;;;;;12.30;4.50;;;18.70;99.40;;;;;;5117806;28;20047;-69
2023/06/07 12:46:26;;;;;;;14.90;4.63;;;18.70;99.90;;;;;;5117990;28;20039;-69